createdAt,value
2018-08-24T00:00:16.743Z,9.30
2018-08-24T00:02:52.617Z,12.20
2018-08-24T00:05:28.849Z,9.48
2018-08-24T00:08:02.571Z,14.85
2018-08-24T00:10:38.904Z,11.40
2018-08-24T00:13:16.605Z,12.93
2018-08-24T00:15:53.021Z,12.03
2018-08-24T00:18:29.653Z,13.03
2018-08-24T00:21:07.384Z,13.50
2018-08-24T00:23:43.721Z,13.53
2018-08-24T00:26:20.413Z,12.13
2018-08-24T00:28:57.775Z,10.47
2018-08-24T00:31:34.239Z,13.20
2018-08-24T00:34:11.411Z,13.57
2018-08-24T00:36:47.284Z,11.73
2018-08-24T00:39:24.140Z,13.08
2018-08-24T00:42:01.341Z,11.67
2018-08-24T00:44:36.889Z,11.23
2018-08-24T00:47:14.555Z,12.87
2018-08-24T00:49:51.131Z,19.07
2018-08-24T00:52:20.843Z,11.30
2018-08-24T00:54:50.428Z,11.33
2018-08-24T00:57:19.968Z,11.50
2018-08-24T00:59:49.541Z,11.77
2018-08-24T01:02:19.104Z,16.52
2018-08-24T01:04:48.770Z,12.97
2018-08-24T01:07:18.338Z,13.78
2018-08-24T01:09:47.875Z,13.27
2018-08-24T01:12:17.925Z,14.13
2018-08-24T01:14:48.615Z,14.33
2018-08-24T01:17:25.228Z,12.43
2018-08-24T01:19:54.802Z,15.43
2018-08-24T01:22:24.309Z,14.90
2018-08-24T01:24:59.593Z,14.63
2018-08-24T01:27:29.057Z,17.10
2018-08-24T01:29:58.614Z,12.80
2018-08-24T01:32:28.159Z,16.70
2018-08-24T01:34:57.710Z,15.87
2018-08-24T01:37:27.245Z,13.43
2018-08-24T01:39:56.787Z,15.87
2018-08-24T01:42:26.455Z,19.10
2018-08-24T01:44:56.030Z,16.37
2018-08-24T01:47:25.643Z,14.33
2018-08-24T01:49:55.171Z,13.90
2018-08-24T01:52:24.712Z,15.13
2018-08-24T01:54:54.223Z,21.40
2018-08-24T01:57:23.687Z,14.87
2018-08-24T01:59:53.225Z,15.33
2018-08-24T02:02:22.715Z,15.47
2018-08-24T02:04:52.305Z,13.23
2018-08-24T02:07:21.945Z,12.37
2018-08-24T02:09:51.693Z,17.37
2018-08-24T02:12:26.428Z,14.80
2018-08-24T02:14:55.893Z,15.23
2018-08-24T02:17:30.512Z,18.00
2018-08-24T02:20:05.327Z,15.43
2018-08-24T02:22:34.738Z,16.50
2018-08-24T02:25:04.232Z,17.10
2018-08-24T02:27:33.761Z,15.83
2018-08-24T02:30:03.317Z,17.67
2018-08-24T02:32:32.840Z,16.00
2018-08-24T02:35:02.446Z,16.20
2018-08-24T02:37:32.031Z,15.73
2018-08-24T02:40:01.654Z,17.77
2018-08-24T02:42:31.510Z,21.33
2018-08-24T02:45:01.938Z,18.90
2018-08-24T02:47:31.595Z,16.23
2018-08-24T02:50:01.078Z,18.93
2018-08-24T02:52:30.555Z,18.83
2018-08-24T02:55:00.149Z,18.57
2018-08-24T02:57:29.910Z,19.67
2018-08-24T02:59:59.543Z,20.03
2018-08-24T03:02:29.611Z,17.00
2018-08-24T03:04:59.148Z,18.60
2018-08-24T03:07:28.751Z,20.30
2018-08-24T03:09:58.242Z,18.07
2018-08-24T03:12:27.822Z,18.17
2018-08-24T03:14:57.445Z,19.10
2018-08-24T03:18:01.175Z,20.40
2018-08-24T03:20:30.734Z,20.40
2018-08-24T03:23:00.230Z,19.90
2018-08-24T03:25:29.869Z,20.80
2018-08-24T03:27:59.317Z,14.73
2018-08-24T03:30:28.813Z,19.80
2018-08-24T03:32:58.478Z,21.50
2018-08-24T03:35:28.097Z,19.27
2018-08-24T03:37:57.572Z,21.63
2018-08-24T03:40:27.110Z,22.13
2018-08-24T03:42:56.668Z,19.00
2018-08-24T03:45:26.326Z,20.03
2018-08-24T03:47:55.838Z,23.10
2018-08-24T03:50:30.971Z,18.67
2018-08-24T03:53:00.655Z,19.93
2018-08-24T03:55:34.358Z,20.23
2018-08-24T03:58:04.629Z,17.00
2018-08-24T04:00:34.197Z,19.93
2018-08-24T04:03:03.622Z,19.17
2018-08-24T04:05:33.106Z,21.43
2018-08-24T04:08:02.741Z,19.00
2018-08-24T04:10:32.353Z,19.33
2018-08-24T04:13:01.883Z,19.10
2018-08-24T04:15:31.529Z,18.73
2018-08-24T04:18:01.078Z,19.27
2018-08-24T04:20:30.638Z,21.17
2018-08-24T04:23:00.119Z,22.00
2018-08-24T04:25:29.805Z,21.57
2018-08-24T04:27:59.454Z,22.60
2018-08-24T04:30:28.947Z,20.57
2018-08-24T04:32:58.474Z,20.10
2018-08-24T04:35:27.981Z,24.10
2018-08-24T04:37:57.495Z,24.47
2018-08-24T04:40:27.313Z,20.57
2018-08-24T04:42:56.758Z,27.90
2018-08-24T04:45:26.362Z,25.30
2018-08-24T04:47:55.942Z,22.30
2018-08-24T04:50:25.578Z,22.30
2018-08-24T04:52:55.270Z,26.83
2018-08-24T04:55:24.912Z,25.07
2018-08-24T04:57:54.575Z,20.43
2018-08-24T05:00:23.973Z,24.37
2018-08-24T05:02:53.492Z,20.25
2018-08-24T05:05:22.976Z,21.27
2018-08-24T05:08:08.680Z,21.30
2018-08-24T05:10:38.083Z,22.30
2018-08-24T05:13:07.499Z,21.83
2018-08-24T05:15:36.904Z,19.87
2018-08-24T05:18:06.477Z,17.60
2018-08-24T05:20:35.938Z,17.02
2018-08-24T05:23:06.064Z,17.98
2018-08-24T05:25:35.454Z,17.27
2018-08-24T05:28:06.210Z,17.63
2018-08-24T05:30:35.524Z,18.57
2018-08-24T05:33:06.180Z,19.60
2018-08-24T05:35:35.637Z,21.63
2018-08-24T05:38:06.606Z,19.53
2018-08-24T05:40:36.008Z,24.07
2018-08-24T05:43:06.569Z,21.80
2018-08-24T05:45:35.967Z,22.53
2018-08-24T05:48:06.045Z,25.77
2018-08-24T05:50:35.473Z,24.33
2018-08-24T05:53:06.671Z,23.63
2018-08-24T05:55:36.210Z,24.17
2018-08-24T05:58:06.390Z,24.40
2018-08-24T06:00:39.149Z,20.67
2018-08-24T06:03:09.271Z,23.45
2018-08-24T06:05:42.750Z,24.77
2018-08-24T06:08:12.130Z,23.50
2018-08-24T06:10:41.563Z,22.13
2018-08-24T06:13:11.119Z,25.85
2018-08-24T06:15:40.519Z,23.23
2018-08-24T06:18:09.912Z,22.83
2018-08-24T06:20:39.314Z,20.13
2018-08-24T06:23:08.676Z,18.43
2018-08-24T06:25:38.089Z,18.90
2018-08-24T06:28:07.534Z,21.73
2018-08-24T06:30:36.973Z,19.75
2018-08-24T06:33:06.638Z,21.30
2018-08-24T06:35:36.058Z,20.60
2018-08-24T06:38:06.165Z,20.43
2018-08-24T06:40:35.662Z,20.67
2018-08-24T06:43:06.339Z,17.90
2018-08-24T06:45:35.774Z,17.83
2018-08-24T06:48:06.323Z,15.76
2018-08-24T06:50:35.717Z,15.90
2018-08-24T06:53:06.484Z,14.67
2018-08-24T06:55:35.908Z,14.27
2018-08-24T06:58:06.594Z,13.20
2018-08-24T07:00:36.083Z,13.57
2018-08-24T07:03:06.094Z,13.63
2018-08-24T07:05:35.565Z,13.90
2018-08-24T07:08:06.340Z,13.60
2018-08-24T07:10:35.786Z,13.07
2018-08-24T07:13:06.841Z,12.62
2018-08-24T07:15:39.076Z,10.60
2018-08-24T07:18:08.528Z,12.83
2018-08-24T07:20:38.048Z,12.93
2018-08-24T07:23:07.503Z,14.27
2018-08-24T07:25:37.006Z,10.30
2018-08-24T07:28:06.425Z,12.03
2018-08-24T07:30:35.798Z,11.97
2018-08-24T07:33:06.331Z,11.03
2018-08-24T07:35:35.706Z,11.07
2018-08-24T07:38:06.439Z,11.45
2018-08-24T07:40:35.909Z,9.47
2018-08-24T07:43:06.434Z,7.40
2018-08-24T07:45:35.847Z,12.40
2018-08-24T07:48:06.126Z,7.97
2018-08-24T07:50:35.554Z,8.70
2018-08-24T07:53:06.181Z,9.72
2018-08-24T07:55:36.368Z,7.47
2018-08-24T07:58:07.256Z,6.67
2018-08-24T08:00:36.839Z,10.30
2018-08-24T08:03:06.293Z,8.10
2018-08-24T08:05:35.871Z,8.23
2018-08-24T08:08:06.483Z,7.78
2018-08-24T08:10:40.777Z,6.90
2018-08-24T08:13:11.520Z,9.23
2018-08-24T08:15:41.811Z,8.50
2018-08-24T08:18:11.441Z,8.35
2018-08-24T08:20:40.928Z,6.47
2018-08-24T08:23:10.396Z,8.83
2018-08-24T08:25:53.970Z,6.43
2018-08-24T08:28:23.371Z,10.13
2018-08-24T08:30:52.853Z,8.73
2018-08-24T08:33:23.381Z,7.97
2018-08-24T08:35:52.892Z,6.33
2018-08-24T08:38:22.302Z,5.45
2018-08-24T08:40:51.791Z,6.87
2018-08-24T08:43:21.283Z,7.97
2018-08-24T08:45:50.764Z,7.93
2018-08-24T08:48:20.221Z,6.53
2018-08-24T08:50:53.477Z,11.30
2018-08-24T08:53:22.977Z,7.45
2018-08-24T08:55:52.369Z,7.77
2018-08-24T08:58:21.817Z,5.90
2018-08-24T09:00:51.316Z,7.10
2018-08-24T09:03:20.785Z,5.83
2018-08-24T09:05:50.207Z,5.07
2018-08-24T09:08:22.619Z,6.22
2018-08-24T09:10:52.040Z,5.63
2018-08-24T09:13:21.515Z,5.60
2018-08-24T09:15:51.121Z,7.23
2018-08-24T09:18:25.856Z,7.03
2018-08-24T09:21:00.439Z,10.17
2018-08-24T09:23:35.231Z,4.20
2018-08-24T09:26:09.924Z,8.70
2018-08-24T09:28:40.275Z,6.27
2018-08-24T09:31:14.805Z,5.63
2018-08-24T09:33:44.286Z,4.27
2018-08-24T09:36:18.897Z,6.70
2018-08-24T09:38:49.067Z,6.28
2018-08-24T09:41:19.238Z,6.27
2018-08-24T09:43:53.866Z,4.93
2018-08-24T09:46:28.408Z,3.70
2018-08-24T09:49:03.091Z,4.63
2018-08-24T09:51:32.545Z,5.13
2018-08-24T09:54:06.021Z,5.93
2018-08-24T09:56:36.484Z,7.03
2018-08-24T09:59:06.404Z,6.87
2018-08-24T10:01:41.138Z,6.03
2018-08-24T10:04:15.705Z,4.03
2018-08-24T10:06:50.308Z,4.07
2018-08-24T10:09:19.674Z,4.83
2018-08-24T10:11:49.535Z,3.80
2018-08-24T10:14:19.331Z,3.72
2018-08-24T10:16:48.682Z,4.27
2018-08-24T10:19:18.126Z,6.53
2018-08-24T10:21:47.523Z,5.37
2018-08-24T10:24:16.989Z,3.67
2018-08-24T10:26:50.016Z,4.93
2018-08-24T10:29:19.468Z,7.40
2018-08-24T10:31:48.826Z,3.83
2018-08-24T10:34:18.207Z,5.63
2018-08-24T10:36:47.642Z,4.17
2018-08-24T10:39:17.035Z,5.03
2018-08-24T10:41:46.479Z,4.57
2018-08-24T10:44:15.930Z,5.30
2018-08-24T10:46:45.350Z,6.80
2018-08-24T10:49:14.806Z,4.37
2018-08-24T10:51:44.337Z,5.53
2018-08-24T10:54:13.858Z,5.03
2018-08-24T10:56:43.256Z,5.43
2018-08-24T10:59:12.680Z,4.37
2018-08-24T11:01:42.164Z,4.30
2018-08-24T11:04:11.575Z,5.37
2018-08-24T11:06:41.092Z,5.83
2018-08-24T11:09:11.209Z,5.17
2018-08-24T11:11:40.669Z,3.10
2018-08-24T11:14:10.179Z,6.17
2018-08-24T11:16:39.589Z,5.03
2018-08-24T11:19:08.969Z,10.60
2018-08-24T11:21:38.362Z,8.17
2018-08-24T11:24:07.970Z,12.37
2018-08-24T11:26:37.401Z,5.77
2018-08-24T11:29:06.854Z,9.53
2018-08-24T11:31:36.297Z,7.28
2018-08-24T11:34:06.852Z,7.70
2018-08-24T11:36:36.121Z,9.13
2018-08-24T11:39:08.167Z,6.30
2018-08-24T11:41:37.690Z,6.10
2018-08-24T11:44:07.157Z,7.30
2018-08-24T11:46:36.599Z,5.07
2018-08-24T11:49:06.343Z,4.35
2018-08-24T11:51:35.829Z,7.63
2018-08-24T11:54:06.401Z,5.70
2018-08-24T11:56:35.855Z,6.27
2018-08-24T11:59:06.311Z,6.95
2018-08-24T12:01:35.716Z,4.40
2018-08-24T12:04:06.378Z,3.83
2018-08-24T12:06:35.795Z,6.33
2018-08-24T12:09:09.222Z,3.07
2018-08-24T12:11:38.632Z,2.60
2018-08-24T12:14:08.053Z,2.77
2018-08-24T12:16:37.593Z,2.93
2018-08-24T12:19:07.031Z,4.77
2018-08-24T12:21:36.410Z,5.43
2018-08-24T12:24:06.214Z,4.80
2018-08-24T12:26:35.647Z,5.57
2018-08-24T12:29:06.536Z,4.37
2018-08-24T12:31:35.988Z,5.40
2018-08-24T12:36:33.349Z,3.03
2018-08-24T12:39:02.975Z,3.97
2018-08-24T12:41:32.367Z,5.37
2018-08-24T12:44:01.715Z,5.23
2018-08-24T12:46:31.136Z,6.73
2018-08-24T12:49:00.591Z,5.00
2018-08-24T12:51:56.704Z,5.47
2018-08-24T12:54:26.015Z,7.47
2018-08-24T12:56:55.691Z,6.67
2018-08-24T12:59:25.122Z,4.57
2018-08-24T13:01:54.512Z,5.23
2018-08-24T13:04:23.970Z,6.77
2018-08-24T13:06:53.981Z,4.23
2018-08-24T13:09:23.429Z,6.42
2018-08-24T13:11:52.853Z,6.57
2018-08-24T13:14:22.348Z,6.40
2018-08-24T13:16:51.719Z,4.47
2018-08-24T13:19:21.189Z,5.62
2018-08-24T13:21:50.659Z,4.43
2018-08-24T13:24:20.160Z,5.50
2018-08-24T13:26:49.547Z,6.37
2018-08-24T13:29:18.995Z,4.15
2018-08-24T13:31:48.409Z,4.23
2018-08-24T13:34:17.838Z,4.70
2018-08-24T13:36:47.270Z,4.70
2018-08-24T13:39:16.801Z,3.72
2018-08-24T13:41:46.310Z,3.20
2018-08-24T13:44:15.856Z,4.83
2018-08-24T13:46:45.299Z,4.13
2018-08-24T13:49:14.748Z,5.72
2018-08-24T13:51:44.223Z,6.07
2018-08-24T13:56:47.530Z,4.03
2018-08-24T13:59:17.014Z,2.83
2018-08-24T14:01:46.520Z,4.07
2018-08-24T14:04:15.988Z,4.70
2018-08-24T14:06:45.729Z,5.75
2018-08-24T14:09:15.649Z,3.77
2018-08-24T14:11:48.349Z,4.93
2018-08-24T14:14:20.592Z,2.92
2018-08-24T14:16:50.730Z,4.47
2018-08-24T14:19:20.141Z,3.02
2018-08-24T14:21:49.580Z,4.13
2018-08-24T14:24:19.048Z,5.37
2018-08-24T14:26:48.652Z,3.63
2018-08-24T14:29:18.146Z,3.07
2018-08-24T14:31:47.751Z,2.70
2018-08-24T14:34:17.102Z,2.63
2018-08-24T14:36:52.412Z,4.75
2018-08-24T14:39:21.866Z,2.73
2018-08-24T14:41:51.380Z,4.10
2018-08-24T14:45:23.549Z,2.90
2018-08-24T14:47:52.987Z,4.30
2018-08-24T14:50:22.427Z,5.03
2018-08-24T14:52:51.806Z,3.30
2018-08-24T14:55:21.185Z,3.22
2018-08-24T14:57:50.578Z,5.70
2018-08-24T15:00:19.988Z,4.33
2018-08-24T15:02:49.431Z,3.87
2018-08-24T15:05:18.862Z,3.22
2018-08-24T15:07:48.234Z,3.87
2018-08-24T15:10:17.686Z,4.37
2018-08-24T15:12:47.066Z,3.77
2018-08-24T15:15:16.438Z,5.23
2018-08-24T15:17:45.909Z,3.97
2018-08-24T15:20:15.310Z,2.23
2018-08-24T15:22:44.711Z,4.60
2018-08-24T15:25:14.141Z,4.95
2018-08-24T15:27:50.231Z,3.33
2018-08-24T15:30:22.749Z,2.57
2018-08-24T15:32:57.050Z,3.50
2018-08-24T15:35:27.228Z,2.23
2018-08-24T15:37:58.145Z,2.83
2018-08-24T15:40:29.484Z,4.23
2018-08-24T15:43:00.427Z,3.47
2018-08-24T15:45:30.166Z,3.53
2018-08-24T15:47:59.561Z,3.83
2018-08-24T15:50:28.926Z,2.27
2018-08-24T15:52:59.147Z,3.35
2018-08-24T15:55:28.572Z,4.77
2018-08-24T15:57:58.038Z,4.33
2018-08-24T16:00:27.456Z,3.23
2018-08-24T16:02:56.859Z,2.50
2018-08-24T16:05:26.306Z,4.83
2018-08-24T16:07:55.780Z,3.73
2018-08-24T16:10:25.249Z,5.23
2018-08-24T16:12:54.835Z,20.80
2018-08-24T16:15:24.329Z,3.13
2018-08-24T16:17:59.079Z,4.10
2018-08-24T16:20:28.446Z,2.73
2018-08-24T16:22:57.853Z,3.53
2018-08-24T16:25:27.341Z,3.60
2018-08-24T16:27:56.714Z,4.93
2018-08-24T16:30:26.146Z,5.40
2018-08-24T16:32:55.624Z,2.13
2018-08-24T16:35:25.104Z,2.50
2018-08-24T16:37:54.700Z,6.15
2018-08-24T16:40:26.706Z,2.60
2018-08-24T16:42:56.501Z,3.90
2018-08-24T16:45:26.099Z,4.50
2018-08-24T16:47:55.872Z,3.33
2018-08-24T16:52:53.526Z,5.77
2018-08-24T16:55:24.124Z,7.13
2018-08-24T16:57:54.614Z,10.67
2018-08-24T17:00:24.483Z,10.35
2018-08-24T17:02:54.258Z,8.53
2018-08-24T17:05:24.171Z,5.47
2018-08-24T17:07:53.937Z,5.20
2018-08-24T17:10:23.362Z,4.00
2018-08-24T17:12:52.913Z,7.50
2018-08-24T17:15:22.349Z,4.33
2018-08-24T17:17:51.777Z,3.40
2018-08-24T17:20:21.198Z,5.92
2018-08-24T17:22:50.577Z,2.97
2018-08-24T17:25:20.052Z,3.83
2018-08-24T17:27:49.431Z,5.27
2018-08-24T17:30:18.870Z,2.80
2018-08-24T17:32:48.323Z,5.20
2018-08-24T17:35:17.749Z,4.15
2018-08-24T17:37:47.191Z,1.97
2018-08-24T17:40:16.536Z,4.42
2018-08-24T17:42:46.001Z,5.93
2018-08-24T17:45:15.405Z,3.35
2018-08-24T17:47:44.851Z,5.17
2018-08-24T17:50:14.292Z,4.67
2018-08-24T17:52:43.762Z,2.47
2018-08-24T17:55:13.241Z,6.67
2018-08-24T17:57:42.674Z,3.53
2018-08-24T18:00:12.087Z,2.37
2018-08-24T18:02:41.543Z,4.60
2018-08-24T18:05:11.311Z,4.65
2018-08-24T18:07:41.089Z,2.30
2018-08-24T18:10:10.838Z,2.77
2018-08-24T18:12:40.609Z,2.57
2018-08-24T18:15:10.737Z,2.30
2018-08-24T18:17:40.455Z,2.97
2018-08-24T18:20:10.137Z,3.10
2018-08-24T18:22:40.114Z,2.43
2018-08-24T18:25:09.780Z,2.83
2018-08-24T18:27:39.578Z,2.27
2018-08-24T18:30:09.460Z,3.37
2018-08-24T18:32:39.193Z,2.33
2018-08-24T18:38:40.836Z,1.63
2018-08-24T18:41:10.753Z,2.63
2018-08-24T18:43:42.640Z,2.00
2018-08-24T18:46:13.338Z,2.50
2018-08-24T18:48:42.993Z,6.13
2018-08-24T18:51:12.629Z,4.42
2018-08-24T18:53:42.323Z,3.93
2018-08-24T18:56:12.047Z,4.70
2018-08-24T18:58:41.742Z,2.90
2018-08-24T19:01:12.594Z,4.53
2018-08-24T19:03:42.395Z,5.07
2018-08-24T19:06:12.085Z,3.10
2018-08-24T19:08:43.564Z,2.47
2018-08-24T19:11:18.183Z,2.63
2018-08-24T19:13:47.887Z,3.10
2018-08-24T19:16:17.591Z,1.30
2018-08-24T19:18:52.358Z,2.10
2018-08-24T19:21:27.099Z,2.72
2018-08-24T19:23:56.841Z,2.67
2018-08-24T19:26:26.572Z,3.07
2018-08-24T19:29:01.473Z,4.93
2018-08-24T19:31:31.131Z,3.17
2018-08-24T19:34:00.754Z,3.30
2018-08-24T19:36:30.388Z,2.50
2018-08-24T19:39:00.219Z,2.70
2018-08-24T19:41:34.955Z,3.00
2018-08-24T19:44:04.672Z,2.97
2018-08-24T19:46:34.271Z,2.23
2018-08-24T19:49:12.059Z,2.37
2018-08-24T19:51:41.788Z,3.00
2018-08-24T19:54:11.593Z,3.45
2018-08-24T19:56:41.397Z,3.40
2018-08-24T19:59:14.802Z,2.98
2018-08-24T20:01:46.732Z,2.37
2018-08-24T20:04:18.627Z,3.03
2018-08-24T20:06:56.174Z,2.63
2018-08-24T20:10:31.195Z,2.90
2018-08-24T20:13:00.819Z,5.58
2018-08-24T20:15:35.487Z,4.75
2018-08-24T20:18:06.613Z,3.13
2018-08-24T20:20:36.347Z,2.22
2018-08-24T20:23:06.483Z,2.10
2018-08-24T20:25:36.150Z,1.70
2018-08-24T20:28:06.698Z,3.40
2018-08-24T20:30:36.531Z,5.47
2018-08-24T20:33:06.638Z,4.05
2018-08-24T20:35:36.248Z,2.97
2018-08-24T20:38:09.031Z,2.17
2018-08-24T20:40:46.808Z,2.07
2018-08-24T20:43:16.199Z,2.10
2018-08-24T20:45:45.577Z,2.37
2018-08-24T20:48:14.923Z,2.20
2018-08-24T20:50:45.405Z,2.63
2018-08-24T20:53:14.749Z,2.60
2018-08-24T20:55:44.143Z,3.57
2018-08-24T20:58:13.635Z,3.53
2018-08-24T21:00:43.079Z,3.60
2018-08-24T21:03:12.476Z,3.00
2018-08-24T21:05:41.911Z,3.30
2018-08-24T21:08:11.310Z,3.15
2018-08-24T21:10:40.742Z,3.50
2018-08-24T21:13:10.126Z,3.67
2018-08-24T21:15:39.583Z,3.17
2018-08-24T21:18:09.062Z,3.07
2018-08-24T21:20:38.454Z,4.73
2018-08-24T21:23:07.950Z,3.00
2018-08-24T21:25:37.345Z,5.87
2018-08-24T21:28:06.760Z,2.87
2018-08-24T21:30:36.120Z,2.43
2018-08-24T21:33:06.912Z,2.60
2018-08-24T21:35:36.275Z,2.70
2018-08-24T21:38:06.270Z,5.35
2018-08-24T21:40:35.630Z,4.27
2018-08-24T21:43:06.254Z,4.43
2018-08-24T21:45:35.612Z,3.73
2018-08-24T21:48:06.246Z,6.30
2018-08-24T21:50:35.656Z,5.17
2018-08-24T21:53:06.241Z,3.50
2018-08-24T21:55:35.606Z,3.97
2018-08-24T21:58:06.256Z,2.87
2018-08-24T22:00:42.717Z,3.33
2018-08-24T22:03:13.346Z,3.75
2018-08-24T22:05:42.926Z,2.97
2018-08-24T22:08:12.334Z,4.83
2018-08-24T22:10:41.811Z,3.70
2018-08-24T22:13:11.215Z,3.10
2018-08-24T22:15:40.632Z,3.90
2018-08-24T22:18:10.070Z,5.73
2018-08-24T22:20:39.456Z,3.67
2018-08-24T22:23:08.848Z,3.63
2018-08-24T22:25:38.227Z,4.23
2018-08-24T22:28:07.622Z,3.00
2018-08-24T22:30:37.003Z,2.77
2018-08-24T22:33:06.370Z,4.20
2018-08-24T22:35:35.770Z,4.27
2018-08-24T22:38:06.487Z,2.25
2018-08-24T22:40:35.838Z,2.93
2018-08-24T22:43:10.485Z,4.00
2018-08-24T22:45:39.922Z,3.83
2018-08-24T22:48:09.330Z,3.93
2018-08-24T22:50:38.718Z,3.87
2018-08-24T22:53:08.113Z,4.08
2018-08-24T22:55:37.566Z,3.03
2018-08-24T22:58:06.965Z,3.87
2018-08-24T23:00:36.333Z,2.13
2018-08-24T23:03:15.497Z,2.95
2018-08-24T23:05:46.206Z,2.03
2018-08-24T23:08:15.588Z,3.83
2018-08-24T23:10:44.935Z,2.33
2018-08-24T23:13:14.353Z,3.70
2018-08-24T23:15:50.528Z,4.07
2018-08-24T23:18:56.761Z,2.33
2018-08-24T23:21:33.527Z,2.13
2018-08-24T23:24:09.499Z,3.37
2018-08-24T23:26:45.844Z,1.70
2018-08-24T23:29:22.693Z,2.45
2018-08-24T23:31:58.376Z,2.33
2018-08-24T23:34:34.651Z,1.37
2018-08-24T23:37:11.062Z,3.37
2018-08-24T23:39:45.435Z,2.90
2018-08-24T23:42:21.056Z,5.30
2018-08-24T23:44:57.040Z,2.63
2018-08-24T23:47:32.674Z,1.83
2018-08-24T23:50:09.044Z,0.87
2018-08-24T23:52:45.047Z,1.90
2018-08-24T23:55:21.335Z,2.67
2018-08-24T23:57:57.399Z,1.90
